Terminal Aerodrome Forecast
Issued by NWS

Home | Current Version | Previous Version | Text Only | Print | Product List | Glossary Off
Versions: 1 2 3 4 5 6 7 8 9 10 11 12

000
FTUS43 KFGF 301100
TAFBJI
TAF
KBJI 301121Z 3012/0112 15008KT P6SM FEW250
     FM302000 16012KT P6SM SCT250
     FM010900 23005KT P6SM -SHRA BKN060=

USA.gov is the U.S. government's official web portal to all federal, state and local government web resources and services.